sensor_id;sensor_type;location;lat;lon;timestamp;P1;durP1;ratioP1;P2;durP2;ratioP2
13374;SDS011;6756;51.354;15.754;2023-03-08T00:01:29;3.70;;;2.90;;
13374;SDS011;6756;51.354;15.754;2023-03-08T00:05:29;3.03;;;2.30;;
13374;SDS011;6756;51.354;15.754;2023-03-08T00:09:30;3.97;;;2.67;;
13374;SDS011;6756;51.354;15.754;2023-03-08T00:13:31;4.00;;;2.83;;
13374;SDS011;6756;51.354;15.754;2023-03-08T00:17:34;4.30;;;2.57;;
13374;SDS011;6756;51.354;15.754;2023-03-08T00:21:36;3.50;;;2.47;;
13374;SDS011;6756;51.354;15.754;2023-03-08T00:25:37;4.05;;;2.30;;
13374;SDS011;6756;51.354;15.754;2023-03-08T00:29:38;3.27;;;2.43;;
13374;SDS011;6756;51.354;15.754;2023-03-08T00:33:39;4.30;;;2.70;;
13374;SDS011;6756;51.354;15.754;2023-03-08T00:37:39;2.70;;;1.83;;
13374;SDS011;6756;51.354;15.754;2023-03-08T00:41:41;3.53;;;2.90;;
13374;SDS011;6756;51.354;15.754;2023-03-08T00:45:41;3.10;;;2.37;;
13374;SDS011;6756;51.354;15.754;2023-03-08T00:49:43;4.73;;;3.20;;
13374;SDS011;6756;51.354;15.754;2023-03-08T00:53:44;6.90;;;3.27;;
13374;SDS011;6756;51.354;15.754;2023-03-08T00:57:45;4.03;;;3.00;;
13374;SDS011;6756;51.354;15.754;2023-03-08T01:01:45;3.80;;;2.20;;
13374;SDS011;6756;51.354;15.754;2023-03-08T01:05:48;4.30;;;3.03;;
13374;SDS011;6756;51.354;15.754;2023-03-08T01:09:54;3.33;;;2.67;;
13374;SDS011;6756;51.354;15.754;2023-03-08T01:13:55;4.17;;;2.20;;
13374;SDS011;6756;51.354;15.754;2023-03-08T01:17:56;3.17;;;2.13;;
13374;SDS011;6756;51.354;15.754;2023-03-08T01:21:57;2.77;;;1.80;;
13374;SDS011;6756;51.354;15.754;2023-03-08T01:26:02;2.43;;;1.70;;
13374;SDS011;6756;51.354;15.754;2023-03-08T01:30:07;2.37;;;1.73;;
13374;SDS011;6756;51.354;15.754;2023-03-08T01:34:09;2.23;;;1.80;;
13374;SDS011;6756;51.354;15.754;2023-03-08T01:38:09;2.17;;;1.70;;
13374;SDS011;6756;51.354;15.754;2023-03-08T01:42:10;2.63;;;1.73;;
13374;SDS011;6756;51.354;15.754;2023-03-08T01:46:18;4.17;;;1.77;;
13374;SDS011;6756;51.354;15.754;2023-03-08T01:50:26;1.70;;;1.40;;
13374;SDS011;6756;51.354;15.754;2023-03-08T01:58:41;5.37;;;1.67;;
13374;SDS011;6756;51.354;15.754;2023-03-08T02:02:47;2.63;;;1.53;;
13374;SDS011;6756;51.354;15.754;2023-03-08T02:07:00;2.40;;;1.40;;
13374;SDS011;6756;51.354;15.754;2023-03-08T02:11:00;3.17;;;1.63;;
13374;SDS011;6756;51.354;15.754;2023-03-08T02:15:02;1.90;;;1.20;;
13374;SDS011;6756;51.354;15.754;2023-03-08T02:19:08;1.53;;;1.20;;
13374;SDS011;6756;51.354;15.754;2023-03-08T02:23:14;2.00;;;1.50;;
13374;SDS011;6756;51.354;15.754;2023-03-08T02:27:19;3.70;;;1.60;;
13374;SDS011;6756;51.354;15.754;2023-03-08T02:31:23;2.80;;;1.20;;
13374;SDS011;6756;51.354;15.754;2023-03-08T02:35:24;1.13;;;0.93;;
13374;SDS011;6756;51.354;15.754;2023-03-08T02:39:25;1.73;;;0.93;;
13374;SDS011;6756;51.354;15.754;2023-03-08T02:43:26;3.90;;;1.27;;
13374;SDS011;6756;51.354;15.754;2023-03-08T02:47:27;3.07;;;1.23;;
13374;SDS011;6756;51.354;15.754;2023-03-08T02:51:28;2.93;;;1.33;;
13374;SDS011;6756;51.354;15.754;2023-03-08T02:55:28;2.67;;;1.10;;
13374;SDS011;6756;51.354;15.754;2023-03-08T02:59:29;4.30;;;1.63;;
13374;SDS011;6756;51.354;15.754;2023-03-08T03:03:30;2.30;;;1.57;;
13374;SDS011;6756;51.354;15.754;2023-03-08T03:07:34;2.60;;;1.10;;
13374;SDS011;6756;51.354;15.754;2023-03-08T03:11:35;2.53;;;1.60;;
13374;SDS011;6756;51.354;15.754;2023-03-08T03:15:36;3.33;;;1.60;;
13374;SDS011;6756;51.354;15.754;2023-03-08T03:19:38;3.10;;;1.73;;
13374;SDS011;6756;51.354;15.754;2023-03-08T03:23:39;3.10;;;1.13;;
13374;SDS011;6756;51.354;15.754;2023-03-08T03:27:40;4.27;;;1.63;;
13374;SDS011;6756;51.354;15.754;2023-03-08T03:31:41;2.80;;;1.80;;
13374;SDS011;6756;51.354;15.754;2023-03-08T03:35:42;2.37;;;1.47;;
13374;SDS011;6756;51.354;15.754;2023-03-08T03:39:43;4.00;;;1.40;;
13374;SDS011;6756;51.354;15.754;2023-03-08T03:43:44;2.03;;;1.43;;
13374;SDS011;6756;51.354;15.754;2023-03-08T03:47:45;2.90;;;1.93;;
13374;SDS011;6756;51.354;15.754;2023-03-08T03:51:47;3.83;;;1.90;;
13374;SDS011;6756;51.354;15.754;2023-03-08T03:55:48;2.83;;;1.73;;
13374;SDS011;6756;51.354;15.754;2023-03-08T03:59:49;3.67;;;2.50;;
13374;SDS011;6756;51.354;15.754;2023-03-08T04:03:50;3.90;;;2.30;;
13374;SDS011;6756;51.354;15.754;2023-03-08T04:07:51;3.30;;;2.63;;
13374;SDS011;6756;51.354;15.754;2023-03-08T04:11:51;2.93;;;2.53;;
13374;SDS011;6756;51.354;15.754;2023-03-08T04:15:52;5.53;;;3.03;;
13374;SDS011;6756;51.354;15.754;2023-03-08T04:19:53;5.47;;;3.10;;
13374;SDS011;6756;51.354;15.754;2023-03-08T04:23:54;4.73;;;3.40;;
13374;SDS011;6756;51.354;15.754;2023-03-08T04:27:55;4.47;;;2.97;;
13374;SDS011;6756;51.354;15.754;2023-03-08T04:31:56;6.00;;;3.37;;
13374;SDS011;6756;51.354;15.754;2023-03-08T04:35:59;5.37;;;2.90;;
13374;SDS011;6756;51.354;15.754;2023-03-08T04:40:00;4.93;;;3.90;;
13374;SDS011;6756;51.354;15.754;2023-03-08T04:44:00;5.50;;;3.30;;
13374;SDS011;6756;51.354;15.754;2023-03-08T04:48:02;6.43;;;3.33;;
13374;SDS011;6756;51.354;15.754;2023-03-08T04:52:03;6.60;;;3.23;;
13374;SDS011;6756;51.354;15.754;2023-03-08T04:56:04;6.00;;;3.40;;
13374;SDS011;6756;51.354;15.754;2023-03-08T05:00:06;4.63;;;3.23;;
13374;SDS011;6756;51.354;15.754;2023-03-08T05:04:11;5.00;;;3.47;;
13374;SDS011;6756;51.354;15.754;2023-03-08T05:08:12;4.20;;;3.20;;
13374;SDS011;6756;51.354;15.754;2023-03-08T05:12:12;4.63;;;3.53;;
13374;SDS011;6756;51.354;15.754;2023-03-08T05:16:13;4.80;;;3.50;;
13374;SDS011;6756;51.354;15.754;2023-03-08T05:20:14;6.87;;;3.57;;
13374;SDS011;6756;51.354;15.754;2023-03-08T05:24:15;5.33;;;3.40;;
13374;SDS011;6756;51.354;15.754;2023-03-08T05:28:17;5.40;;;3.17;;
13374;SDS011;6756;51.354;15.754;2023-03-08T05:32:18;4.70;;;2.93;;
13374;SDS011;6756;51.354;15.754;2023-03-08T05:36:19;5.83;;;3.07;;
13374;SDS011;6756;51.354;15.754;2023-03-08T05:40:20;4.97;;;2.87;;
13374;SDS011;6756;51.354;15.754;2023-03-08T05:44:21;5.53;;;3.30;;
13374;SDS011;6756;51.354;15.754;2023-03-08T05:48:22;3.20;;;2.33;;
13374;SDS011;6756;51.354;15.754;2023-03-08T05:52:23;3.93;;;2.80;;
13374;SDS011;6756;51.354;15.754;2023-03-08T05:56:23;4.53;;;3.03;;
13374;SDS011;6756;51.354;15.754;2023-03-08T06:00:24;4.10;;;2.87;;
13374;SDS011;6756;51.354;15.754;2023-03-08T06:04:25;2.80;;;2.37;;
13374;SDS011;6756;51.354;15.754;2023-03-08T06:08:26;6.03;;;2.93;;
13374;SDS011;6756;51.354;15.754;2023-03-08T06:12:27;4.57;;;2.67;;
13374;SDS011;6756;51.354;15.754;2023-03-08T06:16:28;4.07;;;2.97;;
13374;SDS011;6756;51.354;15.754;2023-03-08T06:20:28;6.57;;;2.47;;
13374;SDS011;6756;51.354;15.754;2023-03-08T06:24:29;4.47;;;2.97;;
13374;SDS011;6756;51.354;15.754;2023-03-08T06:28:30;4.70;;;2.67;;
13374;SDS011;6756;51.354;15.754;2023-03-08T06:32:31;4.37;;;2.50;;
13374;SDS011;6756;51.354;15.754;2023-03-08T06:36:32;4.73;;;3.17;;
13374;SDS011;6756;51.354;15.754;2023-03-08T06:40:33;4.40;;;2.60;;
13374;SDS011;6756;51.354;15.754;2023-03-08T06:44:34;5.03;;;2.60;;
13374;SDS011;6756;51.354;15.754;2023-03-08T06:48:35;6.70;;;3.03;;
13374;SDS011;6756;51.354;15.754;2023-03-08T06:52:36;5.30;;;2.93;;
13374;SDS011;6756;51.354;15.754;2023-03-08T06:56:37;5.77;;;3.47;;
13374;SDS011;6756;51.354;15.754;2023-03-08T07:00:38;5.40;;;3.73;;
13374;SDS011;6756;51.354;15.754;2023-03-08T07:04:39;5.97;;;4.93;;
13374;SDS011;6756;51.354;15.754;2023-03-08T07:08:39;8.67;;;4.73;;
13374;SDS011;6756;51.354;15.754;2023-03-08T07:12:41;7.67;;;4.73;;
13374;SDS011;6756;51.354;15.754;2023-03-08T07:16:45;6.53;;;5.13;;
13374;SDS011;6756;51.354;15.754;2023-03-08T07:20:51;6.40;;;4.33;;
13374;SDS011;6756;51.354;15.754;2023-03-08T07:24:54;6.20;;;4.20;;
13374;SDS011;6756;51.354;15.754;2023-03-08T07:28:55;7.40;;;4.73;;
13374;SDS011;6756;51.354;15.754;2023-03-08T07:32:56;8.53;;;4.30;;
13374;SDS011;6756;51.354;15.754;2023-03-08T07:36:57;7.17;;;4.57;;
13374;SDS011;6756;51.354;15.754;2023-03-08T07:40:58;6.00;;;4.43;;
13374;SDS011;6756;51.354;15.754;2023-03-08T07:44:59;5.90;;;4.13;;
13374;SDS011;6756;51.354;15.754;2023-03-08T07:48:59;7.33;;;4.17;;
13374;SDS011;6756;51.354;15.754;2023-03-08T07:53:00;7.83;;;3.97;;
13374;SDS011;6756;51.354;15.754;2023-03-08T07:57:03;6.47;;;3.70;;
13374;SDS011;6756;51.354;15.754;2023-03-08T08:01:10;5.20;;;3.07;;
13374;SDS011;6756;51.354;15.754;2023-03-08T08:05:13;6.20;;;3.37;;
13374;SDS011;6756;51.354;15.754;2023-03-08T08:09:14;5.50;;;3.07;;
13374;SDS011;6756;51.354;15.754;2023-03-08T08:13:16;4.83;;;2.93;;
13374;SDS011;6756;51.354;15.754;2023-03-08T08:17:20;5.30;;;2.60;;
13374;SDS011;6756;51.354;15.754;2023-03-08T08:21:21;5.70;;;3.27;;
13374;SDS011;6756;51.354;15.754;2023-03-08T08:25:22;4.53;;;2.70;;
13374;SDS011;6756;51.354;15.754;2023-03-08T08:29:23;3.57;;;2.43;;
13374;SDS011;6756;51.354;15.754;2023-03-08T08:33:24;4.43;;;3.17;;
13374;SDS011;6756;51.354;15.754;2023-03-08T08:37:27;2.97;;;2.07;;
13374;SDS011;6756;51.354;15.754;2023-03-08T08:41:29;3.97;;;2.40;;
13374;SDS011;6756;51.354;15.754;2023-03-08T08:45:31;4.07;;;2.40;;
13374;SDS011;6756;51.354;15.754;2023-03-08T08:49:32;4.13;;;2.50;;
13374;SDS011;6756;51.354;15.754;2023-03-08T08:53:32;3.07;;;2.20;;
13374;SDS011;6756;51.354;15.754;2023-03-08T08:57:34;4.03;;;2.50;;
13374;SDS011;6756;51.354;15.754;2023-03-08T09:01:34;4.43;;;2.30;;
13374;SDS011;6756;51.354;15.754;2023-03-08T09:05:40;4.33;;;2.10;;
13374;SDS011;6756;51.354;15.754;2023-03-08T09:09:41;3.67;;;2.40;;
13374;SDS011;6756;51.354;15.754;2023-03-08T09:13:42;2.93;;;1.90;;
13374;SDS011;6756;51.354;15.754;2023-03-08T09:17:43;4.83;;;1.80;;
13374;SDS011;6756;51.354;15.754;2023-03-08T09:21:44;3.90;;;2.17;;
13374;SDS011;6756;51.354;15.754;2023-03-08T09:25:53;5.40;;;2.40;;
13374;SDS011;6756;51.354;15.754;2023-03-08T09:29:55;4.43;;;2.10;;
13374;SDS011;6756;51.354;15.754;2023-03-08T09:33:57;2.47;;;1.80;;
13374;SDS011;6756;51.354;15.754;2023-03-08T09:37:59;3.17;;;1.90;;
13374;SDS011;6756;51.354;15.754;2023-03-08T09:42:01;3.37;;;2.10;;
13374;SDS011;6756;51.354;15.754;2023-03-08T09:46:03;4.43;;;2.27;;
13374;SDS011;6756;51.354;15.754;2023-03-08T09:54:12;4.13;;;2.40;;
13374;SDS011;6756;51.354;15.754;2023-03-08T09:58:27;3.97;;;2.80;;
13374;SDS011;6756;51.354;15.754;2023-03-08T10:11:36;3.73;;;2.20;;
13374;SDS011;6756;51.354;15.754;2023-03-08T10:15:49;2.50;;;1.73;;
13374;SDS011;6756;51.354;15.754;2023-03-08T10:19:58;2.70;;;1.97;;
13374;SDS011;6756;51.354;15.754;2023-03-08T10:24:15;3.87;;;2.17;;
13374;SDS011;6756;51.354;15.754;2023-03-08T10:28:19;5.63;;;2.50;;
13374;SDS011;6756;51.354;15.754;2023-03-08T10:32:22;3.90;;;2.40;;
13374;SDS011;6756;51.354;15.754;2023-03-08T10:36:24;5.70;;;3.33;;
13374;SDS011;6756;51.354;15.754;2023-03-08T10:40:26;4.30;;;2.90;;
13374;SDS011;6756;51.354;15.754;2023-03-08T10:48:41;4.97;;;2.83;;
13374;SDS011;6756;51.354;15.754;2023-03-08T10:52:43;5.93;;;3.00;;
13374;SDS011;6756;51.354;15.754;2023-03-08T10:56:56;4.33;;;2.93;;
13374;SDS011;6756;51.354;15.754;2023-03-08T11:01:00;4.57;;;2.80;;
13374;SDS011;6756;51.354;15.754;2023-03-08T11:09:28;3.20;;;2.60;;
13374;SDS011;6756;51.354;15.754;2023-03-08T11:13:34;2.60;;;2.27;;
13374;SDS011;6756;51.354;15.754;2023-03-08T11:18:12;5.30;;;3.33;;
13374;SDS011;6756;51.354;15.754;2023-03-08T11:22:34;3.90;;;2.83;;
13374;SDS011;6756;51.354;15.754;2023-03-08T11:35:14;8.00;;;5.50;;
13374;SDS011;6756;51.354;15.754;2023-03-08T11:39:27;5.93;;;4.90;;
13374;SDS011;6756;51.354;15.754;2023-03-08T11:43:39;7.27;;;4.83;;
13374;SDS011;6756;51.354;15.754;2023-03-08T11:48:13;7.33;;;4.97;;
13374;SDS011;6756;51.354;15.754;2023-03-08T11:52:40;7.83;;;5.53;;
13374;SDS011;6756;51.354;15.754;2023-03-08T11:56:53;7.50;;;5.40;;
13374;SDS011;6756;51.354;15.754;2023-03-08T12:00:58;7.20;;;5.23;;
13374;SDS011;6756;51.354;15.754;2023-03-08T12:13:46;15.70;;;8.30;;
13374;SDS011;6756;51.354;15.754;2023-03-08T12:17:52;11.40;;;6.50;;
13374;SDS011;6756;51.354;15.754;2023-03-08T12:22:14;44.63;;;18.20;;
13374;SDS011;6756;51.354;15.754;2023-03-08T12:26:39;45.27;;;16.57;;
13374;SDS011;6756;51.354;15.754;2023-03-08T12:35:00;21.10;;;9.40;;
13374;SDS011;6756;51.354;15.754;2023-03-08T12:39:05;19.70;;;9.43;;
13374;SDS011;6756;51.354;15.754;2023-03-08T12:47:21;25.13;;;14.20;;
13374;SDS011;6756;51.354;15.754;2023-03-08T12:51:24;25.33;;;12.70;;
13374;SDS011;6756;51.354;15.754;2023-03-08T12:55:34;31.67;;;15.20;;
13374;SDS011;6756;51.354;15.754;2023-03-08T12:59:35;14.57;;;8.60;;
13374;SDS011;6756;51.354;15.754;2023-03-08T13:03:39;34.03;;;17.00;;
13374;SDS011;6756;51.354;15.754;2023-03-08T13:07:46;17.90;;;10.60;;
13374;SDS011;6756;51.354;15.754;2023-03-08T13:12:07;14.63;;;9.33;;
13374;SDS011;6756;51.354;15.754;2023-03-08T13:16:33;20.27;;;13.30;;
13374;SDS011;6756;51.354;15.754;2023-03-08T13:20:48;11.07;;;8.07;;
13374;SDS011;6756;51.354;15.754;2023-03-08T13:25:05;17.10;;;10.37;;
13374;SDS011;6756;51.354;15.754;2023-03-08T13:29:20;19.93;;;12.27;;
13374;SDS011;6756;51.354;15.754;2023-03-08T13:33:22;17.30;;;12.07;;
13374;SDS011;6756;51.354;15.754;2023-03-08T13:37:27;22.37;;;14.53;;
13374;SDS011;6756;51.354;15.754;2023-03-08T13:41:39;18.07;;;12.10;;
13374;SDS011;6756;51.354;15.754;2023-03-08T13:45:45;19.67;;;11.40;;
13374;SDS011;6756;51.354;15.754;2023-03-08T13:49:51;24.83;;;15.27;;
13374;SDS011;6756;51.354;15.754;2023-03-08T13:53:54;16.47;;;14.20;;
13374;SDS011;6756;51.354;15.754;2023-03-08T13:57:55;21.17;;;15.17;;
13374;SDS011;6756;51.354;15.754;2023-03-08T14:01:57;26.50;;;18.77;;
13374;SDS011;6756;51.354;15.754;2023-03-08T14:05:58;20.97;;;15.07;;
13374;SDS011;6756;51.354;15.754;2023-03-08T14:09:59;24.27;;;16.80;;
13374;SDS011;6756;51.354;15.754;2023-03-08T14:14:01;22.40;;;15.83;;
13374;SDS011;6756;51.354;15.754;2023-03-08T14:18:03;24.03;;;16.97;;
13374;SDS011;6756;51.354;15.754;2023-03-08T14:26:23;21.53;;;16.30;;
13374;SDS011;6756;51.354;15.754;2023-03-08T14:30:29;19.17;;;15.40;;
13374;SDS011;6756;51.354;15.754;2023-03-08T14:34:34;21.50;;;16.43;;
13374;SDS011;6756;51.354;15.754;2023-03-08T14:38:46;18.80;;;14.80;;
13374;SDS011;6756;51.354;15.754;2023-03-08T14:42:49;21.37;;;15.37;;
13374;SDS011;6756;51.354;15.754;2023-03-08T14:46:53;20.87;;;15.87;;
13374;SDS011;6756;51.354;15.754;2023-03-08T14:50:58;19.03;;;14.50;;
13374;SDS011;6756;51.354;15.754;2023-03-08T14:55:17;21.63;;;16.90;;
13374;SDS011;6756;51.354;15.754;2023-03-08T14:59:20;18.33;;;15.67;;
13374;SDS011;6756;51.354;15.754;2023-03-08T15:03:22;17.10;;;13.80;;
13374;SDS011;6756;51.354;15.754;2023-03-08T15:07:24;22.87;;;17.80;;
13374;SDS011;6756;51.354;15.754;2023-03-08T15:11:30;25.43;;;18.73;;
13374;SDS011;6756;51.354;15.754;2023-03-08T15:15:31;21.10;;;16.13;;
13374;SDS011;6756;51.354;15.754;2023-03-08T15:19:32;25.47;;;20.20;;
13374;SDS011;6756;51.354;15.754;2023-03-08T15:23:34;20.50;;;16.40;;
13374;SDS011;6756;51.354;15.754;2023-03-08T15:27:37;29.30;;;20.00;;
13374;SDS011;6756;51.354;15.754;2023-03-08T15:31:37;26.03;;;18.93;;
13374;SDS011;6756;51.354;15.754;2023-03-08T15:35:38;24.93;;;17.43;;
13374;SDS011;6756;51.354;15.754;2023-03-08T15:39:40;25.67;;;20.97;;
13374;SDS011;6756;51.354;15.754;2023-03-08T15:43:41;26.83;;;18.70;;
13374;SDS011;6756;51.354;15.754;2023-03-08T15:47:42;38.87;;;21.90;;
13374;SDS011;6756;51.354;15.754;2023-03-08T15:51:43;51.47;;;27.00;;
13374;SDS011;6756;51.354;15.754;2023-03-08T15:55:44;39.83;;;25.23;;
13374;SDS011;6756;51.354;15.754;2023-03-08T15:59:45;36.60;;;23.47;;
13374;SDS011;6756;51.354;15.754;2023-03-08T16:03:46;37.60;;;23.47;;
13374;SDS011;6756;51.354;15.754;2023-03-08T16:07:51;57.70;;;36.60;;
13374;SDS011;6756;51.354;15.754;2023-03-08T16:11:53;43.70;;;27.33;;
13374;SDS011;6756;51.354;15.754;2023-03-08T16:15:56;82.80;;;39.50;;
13374;SDS011;6756;51.354;15.754;2023-03-08T16:20:02;70.30;;;36.50;;
13374;SDS011;6756;51.354;15.754;2023-03-08T16:24:05;153.30;;;69.13;;
13374;SDS011;6756;51.354;15.754;2023-03-08T16:28:06;78.93;;;39.10;;
13374;SDS011;6756;51.354;15.754;2023-03-08T16:32:08;85.27;;;47.23;;
13374;SDS011;6756;51.354;15.754;2023-03-08T16:36:17;82.77;;;41.07;;
13374;SDS011;6756;51.354;15.754;2023-03-08T16:40:18;74.77;;;42.63;;
13374;SDS011;6756;51.354;15.754;2023-03-08T16:44:24;51.23;;;32.87;;
13374;SDS011;6756;51.354;15.754;2023-03-08T16:48:27;44.30;;;25.37;;
13374;SDS011;6756;51.354;15.754;2023-03-08T16:52:28;104.13;;;43.30;;
13374;SDS011;6756;51.354;15.754;2023-03-08T16:56:29;181.20;;;75.37;;
13374;SDS011;6756;51.354;15.754;2023-03-08T17:00:30;156.53;;;76.93;;
13374;SDS011;6756;51.354;15.754;2023-03-08T17:04:31;86.43;;;43.80;;
13374;SDS011;6756;51.354;15.754;2023-03-08T17:08:32;57.37;;;34.00;;
13374;SDS011;6756;51.354;15.754;2023-03-08T17:12:32;54.27;;;30.13;;
13374;SDS011;6756;51.354;15.754;2023-03-08T17:16:34;50.03;;;29.57;;
13374;SDS011;6756;51.354;15.754;2023-03-08T17:20:39;42.40;;;30.03;;
13374;SDS011;6756;51.354;15.754;2023-03-08T17:24:41;40.73;;;24.87;;
13374;SDS011;6756;51.354;15.754;2023-03-08T17:28:42;44.53;;;29.50;;
13374;SDS011;6756;51.354;15.754;2023-03-08T17:32:43;49.97;;;34.33;;
13374;SDS011;6756;51.354;15.754;2023-03-08T17:36:44;50.47;;;32.47;;
13374;SDS011;6756;51.354;15.754;2023-03-08T17:40:47;40.17;;;26.43;;
13374;SDS011;6756;51.354;15.754;2023-03-08T17:44:48;75.23;;;54.17;;
13374;SDS011;6756;51.354;15.754;2023-03-08T17:48:49;62.00;;;37.93;;
13374;SDS011;6756;51.354;15.754;2023-03-08T17:52:53;139.17;;;67.43;;
13374;SDS011;6756;51.354;15.754;2023-03-08T17:56:54;46.93;;;27.80;;
13374;SDS011;6756;51.354;15.754;2023-03-08T18:00:55;79.43;;;48.70;;
13374;SDS011;6756;51.354;15.754;2023-03-08T18:04:56;84.53;;;52.37;;
13374;SDS011;6756;51.354;15.754;2023-03-08T18:08:57;154.63;;;64.80;;
13374;SDS011;6756;51.354;15.754;2023-03-08T18:12:59;153.83;;;60.10;;
13374;SDS011;6756;51.354;15.754;2023-03-08T18:17:00;141.43;;;60.60;;
13374;SDS011;6756;51.354;15.754;2023-03-08T18:21:01;131.23;;;58.30;;
13374;SDS011;6756;51.354;15.754;2023-03-08T18:25:03;166.20;;;82.30;;
13374;SDS011;6756;51.354;15.754;2023-03-08T18:29:04;87.27;;;49.03;;
13374;SDS011;6756;51.354;15.754;2023-03-08T18:33:05;80.33;;;41.27;;
13374;SDS011;6756;51.354;15.754;2023-03-08T18:37:06;105.60;;;68.47;;
13374;SDS011;6756;51.354;15.754;2023-03-08T18:41:14;86.07;;;59.73;;
13374;SDS011;6756;51.354;15.754;2023-03-08T18:45:15;76.17;;;49.37;;
13374;SDS011;6756;51.354;15.754;2023-03-08T18:49:17;196.77;;;82.30;;
13374;SDS011;6756;51.354;15.754;2023-03-08T18:53:18;54.77;;;34.20;;
13374;SDS011;6756;51.354;15.754;2023-03-08T18:57:19;69.00;;;41.40;;
13374;SDS011;6756;51.354;15.754;2023-03-08T19:01:20;107.97;;;50.20;;
13374;SDS011;6756;51.354;15.754;2023-03-08T19:05:21;64.50;;;36.77;;
13374;SDS011;6756;51.354;15.754;2023-03-08T19:09:22;70.77;;;38.17;;
13374;SDS011;6756;51.354;15.754;2023-03-08T19:13:23;63.00;;;36.77;;
13374;SDS011;6756;51.354;15.754;2023-03-08T19:17:24;71.57;;;39.60;;
13374;SDS011;6756;51.354;15.754;2023-03-08T19:21:26;59.30;;;37.90;;
13374;SDS011;6756;51.354;15.754;2023-03-08T19:25:32;90.67;;;46.60;;
13374;SDS011;6756;51.354;15.754;2023-03-08T19:29:34;77.47;;;43.07;;
13374;SDS011;6756;51.354;15.754;2023-03-08T19:33:34;87.77;;;48.03;;
13374;SDS011;6756;51.354;15.754;2023-03-08T19:37:35;86.17;;;44.70;;
13374;SDS011;6756;51.354;15.754;2023-03-08T19:41:36;59.97;;;36.20;;
13374;SDS011;6756;51.354;15.754;2023-03-08T19:45:37;65.50;;;38.73;;
13374;SDS011;6756;51.354;15.754;2023-03-08T19:49:38;52.53;;;33.73;;
13374;SDS011;6756;51.354;15.754;2023-03-08T19:53:39;56.20;;;36.27;;
13374;SDS011;6756;51.354;15.754;2023-03-08T19:57:41;71.70;;;43.60;;
13374;SDS011;6756;51.354;15.754;2023-03-08T20:01:42;58.97;;;38.10;;
13374;SDS011;6756;51.354;15.754;2023-03-08T20:05:44;59.67;;;38.70;;
13374;SDS011;6756;51.354;15.754;2023-03-08T20:09:46;73.27;;;44.20;;
13374;SDS011;6756;51.354;15.754;2023-03-08T20:13:51;65.60;;;38.93;;
13374;SDS011;6756;51.354;15.754;2023-03-08T20:17:52;58.10;;;34.27;;
13374;SDS011;6756;51.354;15.754;2023-03-08T20:21:53;68.90;;;39.47;;
13374;SDS011;6756;51.354;15.754;2023-03-08T20:25:54;90.03;;;48.53;;
13374;SDS011;6756;51.354;15.754;2023-03-08T20:29:54;68.40;;;40.60;;
13374;SDS011;6756;51.354;15.754;2023-03-08T20:33:55;99.07;;;52.63;;
13374;SDS011;6756;51.354;15.754;2023-03-08T20:37:57;69.10;;;41.60;;
13374;SDS011;6756;51.354;15.754;2023-03-08T20:41:57;99.60;;;55.43;;
13374;SDS011;6756;51.354;15.754;2023-03-08T20:45:58;72.37;;;43.97;;
13374;SDS011;6756;51.354;15.754;2023-03-08T20:50:04;55.03;;;33.33;;
13374;SDS011;6756;51.354;15.754;2023-03-08T20:54:06;64.13;;;39.90;;
13374;SDS011;6756;51.354;15.754;2023-03-08T20:58:08;57.03;;;33.97;;
13374;SDS011;6756;51.354;15.754;2023-03-08T21:02:10;67.27;;;38.93;;
13374;SDS011;6756;51.354;15.754;2023-03-08T21:06:12;60.30;;;33.07;;
13374;SDS011;6756;51.354;15.754;2023-03-08T21:10:16;56.70;;;31.67;;
13374;SDS011;6756;51.354;15.754;2023-03-08T21:14:17;49.30;;;28.53;;
13374;SDS011;6756;51.354;15.754;2023-03-08T21:18:17;52.60;;;28.97;;
13374;SDS011;6756;51.354;15.754;2023-03-08T21:22:19;50.87;;;31.27;;
13374;SDS011;6756;51.354;15.754;2023-03-08T21:26:21;96.67;;;38.50;;
13374;SDS011;6756;51.354;15.754;2023-03-08T21:30:24;44.57;;;26.03;;
13374;SDS011;6756;51.354;15.754;2023-03-08T21:34:27;38.67;;;23.47;;
13374;SDS011;6756;51.354;15.754;2023-03-08T21:38:28;35.67;;;21.77;;
13374;SDS011;6756;51.354;15.754;2023-03-08T21:42:29;40.00;;;22.63;;
13374;SDS011;6756;51.354;15.754;2023-03-08T21:46:30;36.27;;;21.93;;
13374;SDS011;6756;51.354;15.754;2023-03-08T21:50:31;34.10;;;20.30;;
13374;SDS011;6756;51.354;15.754;2023-03-08T21:54:32;34.43;;;20.10;;
13374;SDS011;6756;51.354;15.754;2023-03-08T21:58:33;34.63;;;21.90;;
13374;SDS011;6756;51.354;15.754;2023-03-08T22:02:35;35.60;;;22.20;;
13374;SDS011;6756;51.354;15.754;2023-03-08T22:06:40;43.73;;;24.73;;
13374;SDS011;6756;51.354;15.754;2023-03-08T22:10:41;42.10;;;27.17;;
13374;SDS011;6756;51.354;15.754;2023-03-08T22:14:42;64.97;;;37.50;;
13374;SDS011;6756;51.354;15.754;2023-03-08T22:18:43;64.07;;;34.37;;
13374;SDS011;6756;51.354;15.754;2023-03-08T22:22:44;38.53;;;22.47;;
13374;SDS011;6756;51.354;15.754;2023-03-08T22:26:46;52.43;;;25.97;;
13374;SDS011;6756;51.354;15.754;2023-03-08T22:30:47;52.00;;;28.27;;
13374;SDS011;6756;51.354;15.754;2023-03-08T22:34:48;56.60;;;32.97;;
13374;SDS011;6756;51.354;15.754;2023-03-08T22:38:49;43.60;;;25.17;;
13374;SDS011;6756;51.354;15.754;2023-03-08T22:42:49;40.10;;;24.37;;
13374;SDS011;6756;51.354;15.754;2023-03-08T22:46:50;49.83;;;29.57;;
13374;SDS011;6756;51.354;15.754;2023-03-08T22:50:56;58.33;;;25.97;;
13374;SDS011;6756;51.354;15.754;2023-03-08T22:54:58;48.83;;;27.97;;
13374;SDS011;6756;51.354;15.754;2023-03-08T22:58:59;61.50;;;30.40;;
13374;SDS011;6756;51.354;15.754;2023-03-08T23:03:01;49.07;;;26.30;;
13374;SDS011;6756;51.354;15.754;2023-03-08T23:07:01;33.97;;;20.37;;
13374;SDS011;6756;51.354;15.754;2023-03-08T23:11:03;30.83;;;17.93;;
13374;SDS011;6756;51.354;15.754;2023-03-08T23:20:01;36.57;;;19.53;;
13374;SDS011;6756;51.354;15.754;2023-03-08T23:29:00;40.60;;;21.50;;
13374;SDS011;6756;51.354;15.754;2023-03-08T23:33:02;50.73;;;26.50;;
13374;SDS011;6756;51.354;15.754;2023-03-08T23:37:03;45.83;;;24.93;;
13374;SDS011;6756;51.354;15.754;2023-03-08T23:41:05;34.03;;;20.37;;
13374;SDS011;6756;51.354;15.754;2023-03-08T23:45:07;32.60;;;18.67;;
13374;SDS011;6756;51.354;15.754;2023-03-08T23:49:09;44.20;;;24.70;;
13374;SDS011;6756;51.354;15.754;2023-03-08T23:53:10;40.83;;;22.80;;
13374;SDS011;6756;51.354;15.754;2023-03-08T23:57:10;37.93;;;21.83;;
